Time;durP1;ratioP1;P1;durP2;ratioP2;P2;SDS_P1;SDS_P2;PMS_P1;PMS_P2;Temp;Humidity;BMP_temperature;BMP_pressure;BME280_temperature;BME280_humidity;BME280_pressure;Samples;Min_cycle;Max_cycle;Signal;HPM_P1;HPM_P2
2023/04/25 00:00:17;;;;;;;2.30;1.20;;;;;;;8.40;100.00;99195.96;105047;1258;75971;-50
2023/04/25 00:02:44;;;;;;;2.40;1.50;;;;;;;8.37;100.00;99188.42;104994;1257;61194;-48
2023/04/25 00:05:11;;;;;;;1.60;1.00;;;;;;;8.33;100.00;99188.27;104974;1257;63926;-49
2023/04/25 00:07:38;;;;;;;1.50;1.10;;;;;;;8.29;100.00;99193.03;105044;1259;74208;-51
2023/04/25 00:10:06;;;;;;;1.80;1.00;;;;;;;8.28;100.00;99188.09;104902;1258;66145;-50
2023/04/25 00:12:33;;;;;;;1.60;0.90;;;;;;;8.27;100.00;99181.31;106529;1258;71632;-50
2023/04/25 00:15:00;;;;;;;2.40;1.00;;;;;;;8.27;100.00;99182.80;104904;1261;62357;-50
2023/04/25 00:17:27;;;;;;;1.70;0.90;;;;;;;8.25;100.00;99175.55;104996;1257;61616;-51
2023/04/25 00:19:53;;;;;;;4.30;1.10;;;;;;;8.23;100.00;99170.83;104936;1259;74468;-48
2023/04/25 00:22:20;;;;;;;3.40;1.20;;;;;;;8.22;100.00;99163.92;104954;1258;68776;-51
2023/04/25 00:24:47;;;;;;;2.10;1.20;;;;;;;8.20;100.00;99161.11;104892;1257;72133;-48
2023/04/25 00:27:14;;;;;;;1.50;1.10;;;;;;;8.19;100.00;99162.95;105001;1264;61039;-52
2023/04/25 00:29:41;;;;;;;2.30;1.10;;;;;;;8.16;100.00;99161.34;104917;1262;62761;-50
2023/04/25 00:32:08;;;;;;;1.40;1.00;;;;;;;8.12;100.00;99157.60;105671;1258;74212;-48
2023/04/25 00:34:35;;;;;;;3.20;1.20;;;;;;;8.09;100.00;99159.70;105025;1257;68475;-50
2023/04/25 00:37:02;;;;;;;2.80;1.30;;;;;;;8.05;100.00;99156.48;105012;1259;71657;-48
2023/04/25 00:39:29;;;;;;;3.00;1.40;;;;;;;8.02;100.00;99155.92;104917;1258;60485;-50
2023/04/25 00:41:56;;;;;;;1.30;1.00;;;;;;;7.98;100.00;99154.85;104913;1266;60528;-49
2023/04/25 00:44:22;;;;;;;4.30;1.10;;;;;;;7.95;100.00;99152.69;104920;1257;75956;-49
2023/04/25 00:46:50;;;;;;;2.60;0.80;;;;;;;7.91;100.00;99151.97;104917;1259;67516;-48
2023/04/25 00:49:17;;;;;;;1.00;0.80;;;;;;;7.88;100.00;99154.46;105055;1258;74635;-49
2023/04/25 00:51:44;;;;;;;4.70;1.20;;;;;;;7.85;100.00;99156.56;105241;1258;62154;-49
2023/04/25 00:54:12;;;;;;;1.40;0.80;;;;;;;7.81;100.00;99152.09;105645;1261;63589;-50
2023/04/25 00:56:39;;;;;;;3.80;1.00;;;;;;;7.79;100.00;99153.10;105212;1260;74245;-48
2023/04/25 00:59:06;;;;;;;2.60;0.80;;;;;;;7.77;100.00;99152.98;105517;1257;68341;-48
2023/04/25 01:01:32;;;;;;;1.00;0.80;;;;;;;7.77;100.00;99150.13;105322;1257;74938;-47
2023/04/25 01:03:59;;;;;;;0.90;0.70;;;;;;;7.80;100.00;99150.03;105200;1261;62832;-47
2023/04/25 01:06:27;;;;;;;1.60;0.90;;;;;;;7.81;100.00;99149.96;105146;1259;60421;-50
2023/04/25 01:08:54;;;;;;;3.10;1.00;;;;;;;7.82;100.00;99148.83;105138;1257;73753;-51
2023/04/25 01:11:21;;;;;;;1.10;1.00;;;;;;;7.83;100.00;99143.44;105145;1259;66796;-51
2023/04/25 01:13:48;;;;;;;2.00;1.20;;;;;;;7.82;100.00;99142.57;105147;1258;75326;-50
2023/04/25 01:16:15;;;;;;;2.00;1.10;;;;;;;7.81;100.00;99140.49;105283;1261;60720;-50
2023/04/25 01:18:42;;;;;;;5.10;1.90;;;;;;;7.79;100.00;99141.84;105204;1257;62067;-51
2023/04/25 01:21:10;;;;;;;1.30;1.10;;;;;;;7.76;100.00;99139.09;105064;1261;75488;-51
2023/04/25 01:23:38;;;;;;;1.40;0.90;;;;;;;7.75;100.00;99135.23;105720;1261;68292;-49
2023/04/25 01:26:04;;;;;;;3.60;1.00;;;;;;;7.75;100.00;99134.88;105489;1258;71703;-49
2023/04/25 01:28:32;;;;;;;1.70;0.90;;;;;;;7.76;100.00;99131.96;105022;1264;62368;-49
2023/04/25 01:30:59;;;;;;;1.50;0.90;;;;;;;7.78;100.00;99130.28;105535;1259;62357;-49
2023/04/25 01:33:26;;;;;;;2.20;0.90;;;;;;;7.79;100.00;99123.79;104952;1257;73190;-46
2023/04/25 01:35:53;;;;;;;1.20;0.90;;;;;;;7.80;100.00;99124.10;105237;1258;68539;-49
2023/04/25 01:38:19;;;;;;;1.70;1.00;;;;;;;7.82;100.00;99120.99;104949;1263;71423;-48
2023/04/25 01:40:49;;;;;;;2.10;1.00;;;;;;;7.83;100.00;99119.10;105112;1261;64064;-50
2023/04/25 01:43:18;;;;;;;1.30;0.90;;;;;;;7.84;100.00;99120.33;105583;1258;62666;-49
2023/04/25 01:45:45;;;;;;;1.20;1.00;;;;;;;7.83;100.00;99121.60;104982;1261;73547;-51
2023/04/25 01:48:12;;;;;;;1.20;0.90;;;;;;;7.84;100.00;99122.31;105242;1258;66784;-49
2023/04/25 01:50:39;;;;;;;3.20;1.00;;;;;;;7.83;100.00;99120.90;105373;1259;74809;-50
2023/04/25 01:53:06;;;;;;;1.90;1.10;;;;;;;7.83;100.00;99120.37;105400;1259;60887;-51
2023/04/25 01:55:33;;;;;;;3.90;1.40;;;;;;;7.81;100.00;99122.64;104944;1265;60437;-50
2023/04/25 01:58:09;;;;;;;2.30;1.10;;;;;;;7.78;100.00;99119.55;105120;1259;72929;-49
2023/04/25 02:00:52;;;;;;;1.70;1.10;;;;;;;7.74;100.00;99117.95;105194;1259;66917;-50
2023/04/25 02:03:19;;;;;;;3.10;1.30;;;;;;;7.70;100.00;99117.27;105234;1259;73196;-49
2023/04/25 02:05:46;;;;;;;2.30;1.10;;;;;;;7.63;100.00;99114.73;106270;1259;60465;-50
2023/04/25 02:08:13;;;;;;;1.30;0.90;;;;;;;7.56;100.00;99114.67;105121;1264;60822;-49
2023/04/25 02:10:40;;;;;;;2.10;0.90;;;;;;;7.50;100.00;99113.19;105252;1258;72847;-48
2023/04/25 02:13:16;;;;;;;1.60;1.00;;;;;;;7.44;100.00;99114.54;105296;1261;69962;-51
2023/04/25 02:16:10;;;;;;;1.40;0.90;;;;;;;7.39;100.00;99110.30;105204;1258;74107;-47
2023/04/25 02:18:38;;;;;;;2.30;1.30;;;;;;;7.37;100.00;99111.47;105082;1261;63097;-49
2023/04/25 02:21:06;;;;;;;2.20;1.00;;;;;;;7.36;100.00;99112.41;106071;1259;62659;-49
2023/04/25 02:23:32;;;;;;;1.50;0.90;;;;;;;7.34;100.00;99107.48;105182;1257;74719;-50
2023/04/25 02:25:59;;;;;;;3.20;0.80;;;;;;;7.33;100.00;99105.77;105345;1257;68280;-50
2023/04/25 02:28:26;;;;;;;1.40;1.20;;;;;;;7.32;100.00;99109.93;105087;1264;72364;-48
2023/04/25 02:30:54;;;;;;;2.10;0.80;;;;;;;7.30;100.00;99108.02;105242;1261;60905;-45
2023/04/25 02:33:23;;;;;;;3.50;1.10;;;;;;;7.31;100.00;99105.70;107918;1258;60882;-47
2023/04/25 02:35:49;;;;;;;1.30;1.20;;;;;;;7.31;100.00;99108.19;105069;1257;72711;-49
2023/04/25 02:38:16;;;;;;;2.20;1.30;;;;;;;7.29;100.00;99102.89;105172;1261;69659;-50
2023/04/25 02:40:43;;;;;;;2.90;1.10;;;;;;;7.29;100.00;99102.92;105154;1256;72186;-49
2023/04/25 02:43:10;;;;;;;1.10;1.00;;;;;;;7.28;100.00;99102.41;105086;1258;60493;-50
2023/04/25 02:45:37;;;;;;;3.40;1.60;;;;;;;7.26;100.00;99102.69;105083;1259;62048;-50
2023/04/25 02:48:04;;;;;;;1.40;1.20;;;;;;;7.24;100.00;99104.91;105330;1261;73881;-50
2023/04/25 02:50:31;;;;;;;2.20;1.30;;;;;;;7.21;100.00;99099.15;105094;1261;68800;-54
2023/04/25 02:52:58;;;;;;;1.60;1.00;;;;;;;7.20;100.00;99100.81;108715;1259;71521;-49
2023/04/25 02:55:28;;;;;;;4.20;1.20;;;;;;;7.20;100.00;99101.02;108708;1258;62252;-49
2023/04/25 02:57:55;;;;;;;2.50;1.20;;;;;;;7.19;100.00;99099.96;108673;1259;63509;-49
2023/04/25 03:00:36;;;;;;;2.60;1.40;;;;;;;7.20;100.00;99101.33;106661;1260;74055;-49
2023/04/25 03:03:03;;;;;;;3.90;1.50;;;;;;;7.22;100.00;99104.14;108586;1261;70885;-50
2023/04/25 03:05:30;;;;;;;5.60;1.10;;;;;;;7.23;100.00;99104.23;108642;1258;71966;-50
2023/04/25 03:07:56;;;;;;;1.30;1.00;;;;;;;7.25;100.00;99105.23;108710;1258;60072;-51
2023/04/25 03:10:23;;;;;;;2.70;1.60;;;;;;;7.27;100.00;99105.66;108663;1257;60212;-47
2023/04/25 03:12:50;;;;;;;1.90;1.00;;;;;;;7.29;100.00;99105.05;108717;1257;74878;-49
2023/04/25 03:15:18;;;;;;;4.30;1.00;;;;;;;7.31;100.00;99101.24;108667;1258;69688;-48
2023/04/25 03:17:45;;;;;;;4.70;1.30;;;;;;;7.32;100.00;99102.04;108618;1258;73641;-51
2023/04/25 03:20:12;;;;;;;2.20;1.10;;;;;;;7.33;100.00;99099.86;108495;1258;60796;-48
2023/04/25 03:22:39;;;;;;;5.00;1.40;;;;;;;7.35;100.00;99095.50;108712;1257;62510;-51
2023/04/25 03:25:06;;;;;;;3.30;1.50;;;;;;;7.39;100.00;99098.34;108692;1257;76098;-48
2023/04/25 03:27:34;;;;;;;4.30;1.20;;;;;;;7.43;100.00;99096.37;108700;1257;68800;-47
2023/04/25 03:30:01;;;;;;;2.00;1.10;;;;;;;7.48;100.00;99095.79;108679;1257;72916;-48
2023/04/25 03:32:28;;;;;;;2.90;1.20;;;;;;;7.52;100.00;99094.86;108737;1258;60812;-52
2023/04/25 03:34:55;;;;;;;2.90;1.20;;;;;;;7.57;100.00;99093.89;108729;1257;60361;-49
2023/04/25 03:37:23;;;;;;;2.20;1.20;;;;;;;7.63;100.00;99093.82;105762;1257;74119;-48
2023/04/25 03:39:50;;;;;;;2.20;1.70;;;;;;;7.69;100.00;99092.11;104944;1264;68598;-47
2023/04/25 03:42:17;;;;;;;3.00;1.40;;;;;;;7.74;100.00;99088.30;105039;1258;72750;-47
2023/04/25 03:44:44;;;;;;;5.30;1.10;;;;;;;7.80;100.00;99087.32;105043;1261;64274;-46
2023/04/25 03:47:12;;;;;;;4.30;1.20;;;;;;;7.85;100.00;99084.92;105539;1258;62363;-48
2023/04/25 03:49:39;;;;;;;5.80;1.30;;;;;;;7.91;100.00;99083.36;105044;1259;75184;-48
2023/04/25 03:52:05;;;;;;;1.50;1.20;;;;;;;7.98;100.00;99086.79;105173;1259;67757;-48
2023/04/25 03:54:35;;;;;;;2.50;1.10;;;;;;;8.08;100.00;99083.27;105151;1259;73476;-46
2023/04/25 03:57:05;;;;;;;2.30;1.50;;;;;;;8.19;100.00;99085.05;105325;1259;65282;-48
2023/04/25 03:59:34;;;;;;;4.90;1.10;;;;;;;8.32;100.00;99076.54;105299;1257;60568;-48
2023/04/25 04:02:01;;;;;;;3.40;1.30;;;;;;;8.47;100.00;99078.66;105109;1258;76973;-51
2023/04/25 04:04:29;;;;;;;2.10;1.40;;;;;;;8.65;100.00;99075.79;105065;1258;70038;-48
2023/04/25 04:06:57;;;;;;;5.30;1.40;;;;;;;8.89;100.00;99070.95;105132;1261;72548;-50
2023/04/25 04:09:27;;;;;;;3.90;1.70;;;;;;;9.21;100.00;99061.05;105198;1257;62053;-50
2023/04/25 04:11:56;;;;;;;2.20;1.30;;;;;;;9.55;100.00;99052.35;105894;1259;61190;-52
2023/04/25 04:14:22;;;;;;;1.60;1.30;;;;;;;9.92;100.00;99043.27;104877;1261;76758;-53
2023/04/25 04:16:51;;;;;;;5.90;1.10;;;;;;;10.35;100.00;99036.68;104929;1261;69377;-53
2023/04/25 04:19:18;;;;;;;1.70;0.80;;;;;;;10.84;100.00;99029.46;105033;1259;74717;-51
2023/04/25 04:21:51;;;;;;;6.70;1.70;;;;;;;11.38;100.00;99019.59;104983;1261;62813;-51
2023/04/25 04:24:18;;;;;;;2.60;1.00;;;;;;;11.90;100.00;99011.39;104904;1257;60439;-52
2023/04/25 04:26:59;;;;;;;3.90;0.80;;;;;;;12.49;100.00;99002.46;105269;1261;73781;-51
2023/04/25 04:29:33;;;;;;;1.30;0.80;;;;;;;13.00;100.00;98988.99;104994;1259;68173;-50
2023/04/25 04:32:08;;;;;;;1.80;0.80;;;;;;;13.45;100.00;98983.98;104781;1259;73288;-50
2023/04/25 04:34:35;;;;;;;1.40;0.80;;;;;;;13.73;100.00;98980.52;104808;1259;61665;-51
2023/04/25 04:37:02;;;;;;;0.90;0.80;;;;;;;13.83;100.00;98976.55;104827;1258;62128;-51
2023/04/25 04:39:29;;;;;;;1.10;1.00;;;;;;;13.84;100.00;98976.64;104871;1259;75445;-51
2023/04/25 04:42:08;;;;;;;1.10;0.80;;;;;;;13.80;100.00;98973.83;104852;1260;69021;-51
2023/04/25 04:44:54;;;;;;;1.00;0.80;;;;;;;13.69;100.00;98974.30;104967;1259;73507;-52
2023/04/25 04:47:33;;;;;;;1.40;0.80;;;;;;;13.57;100.00;98975.19;104425;1264;62524;-52
2023/04/25 04:50:15;;;;;;;2.80;0.90;;;;;;;13.47;100.00;98976.45;104735;1257;62479;-52
2023/04/25 04:53:15;;;;;;;1.40;0.70;;;;;;;13.37;100.00;98975.37;104805;1258;75212;-52
2023/04/25 04:55:56;;;;;;;1.90;0.80;;;;;;;13.30;100.00;98973.36;105082;1257;66030;-52
2023/04/25 04:58:41;;;;;;;1.80;0.90;;;;;;;13.23;100.00;98974.05;105014;1259;73322;-52
2023/04/25 05:01:27;;;;;;;2.10;0.80;;;;;;;13.16;100.00;98971.64;104920;1257;62570;-53
2023/04/25 05:04:00;;;;;;;1.20;0.70;;;;;;;13.13;100.00;98971.88;105048;1258;61240;-52
2023/04/25 05:06:46;;;;;;;4.30;0.90;;;;;;;13.11;100.00;98974.16;104877;1259;73257;-53
2023/04/25 05:09:33;;;;;;;4.10;0.70;;;;;;;13.10;100.00;98974.58;105055;1259;68113;-52
2023/04/25 05:12:14;;;;;;;2.60;0.80;;;;;;;13.11;100.00;98971.63;104881;1264;75241;-50
2023/04/25 05:15:13;;;;;;;2.70;0.80;;;;;;;13.11;100.00;98970.90;104945;1261;60486;-49
2023/04/25 05:17:59;;;;;;;2.50;0.70;;;;;;;13.12;100.00;98966.32;105301;1258;62506;-50
2023/04/25 05:20:34;;;;;;;1.30;0.70;;;;;;;13.14;100.00;98961.54;105249;1263;75568;-50
2023/04/25 05:23:00;;;;;;;4.40;1.00;;;;;;;13.17;100.00;98959.86;105081;1258;68499;-52
2023/04/25 05:25:50;;;;;;;1.60;0.80;;;;;;;13.21;100.00;98962.27;104740;1259;74722;-52
2023/04/25 05:28:43;;;;;;;2.10;0.80;;;;;;;13.25;100.00;98961.27;105460;1259;61124;-51
2023/04/25 05:31:28;;;;;;;3.70;0.60;;;;;;;13.30;100.00;98956.09;105295;1260;62115;-51
2023/04/25 05:34:09;;;;;;;1.30;0.80;;;;;;;13.35;100.00;98955.14;105178;1259;75927;-52
2023/04/25 05:36:43;;;;;;;1.70;0.80;;;;;;;13.41;100.00;98955.24;106412;1259;67467;-52
2023/04/25 05:39:10;;;;;;;3.10;0.60;;;;;;;13.47;100.00;98951.92;105159;1262;74734;-51
2023/04/25 05:42:15;;;;;;;;;;;;;;;13.56;100.00;98952.55;105026;1264;61449;-52
2023/04/25 05:45:20;;;;;;;1.30;0.60;;;;;;;13.66;100.00;98949.10;104210;1274;60485;-51
2023/04/25 05:47:57;;;;;;;1.50;0.60;;;;;;;13.76;100.00;98946.21;105043;1273;75408;-52
2023/04/25 05:51:03;;;;;;;3.70;0.70;;;;;;;13.86;100.00;98946.49;104516;1262;67950;-52
2023/04/25 05:53:41;;;;;;;1.40;0.80;;;;;;;13.94;100.00;98944.63;104207;1268;74901;-49
2023/04/25 05:56:08;;;;;;;1.10;0.60;;;;;;;14.01;100.00;98937.27;104313;1259;61751;-51
2023/04/25 05:58:34;;;;;;;2.80;0.70;;;;;;;14.08;100.00;98936.77;104846;1261;60501;-53
2023/04/25 06:01:02;;;;;;;1.10;0.70;;;;;;;14.14;100.00;98935.73;104791;1263;73676;-50
2023/04/25 06:03:29;;;;;;;0.90;0.70;;;;;;;14.20;100.00;98935.43;104940;1262;67816;-49
2023/04/25 06:05:57;;;;;;;1.60;0.70;;;;;;;14.27;100.00;98929.88;106133;1258;73718;-52
2023/04/25 06:08:25;;;;;;;1.00;0.60;;;;;;;14.34;100.00;98928.11;108660;1256;61565;-52
2023/04/25 06:10:51;;;;;;;1.90;0.60;;;;;;;14.41;100.00;98926.11;108091;1258;60413;-51
2023/04/25 06:13:18;;;;;;;2.30;0.70;;;;;;;14.50;100.00;98924.70;104751;1257;73850;-52
2023/04/25 06:15:45;;;;;;;5.40;0.60;;;;;;;14.59;100.00;98922.92;104914;1261;67796;-51
2023/04/25 06:18:12;;;;;;;1.80;0.60;;;;;;;14.68;100.00;98918.80;105571;1261;75328;-51
2023/04/25 06:20:39;;;;;;;0.60;0.60;;;;;;;14.76;100.00;98916.17;104749;1261;62049;-52
2023/04/25 06:23:06;;;;;;;4.80;0.60;;;;;;;14.84;100.00;98914.07;108708;1257;60491;-50
2023/04/25 06:25:45;;;;;;;0.70;0.60;;;;;;;14.94;100.00;98909.70;104512;1259;72875;-51
2023/04/25 06:28:12;;;;;;;1.90;0.50;;;;;;;15.03;100.00;98909.30;104610;1259;67966;-50
2023/04/25 06:30:40;;;;;;;1.00;0.60;;;;;;;15.12;100.00;98906.43;104590;1259;73178;-50
2023/04/25 06:33:10;;;;;;;0.80;0.50;;;;;;;15.20;100.00;98903.63;105649;1263;62092;-52
2023/04/25 06:35:37;;;;;;;2.60;0.70;;;;;;;15.28;100.00;98899.85;104936;1258;62912;-52
2023/04/25 06:38:04;;;;;;;4.10;0.60;;;;;;;15.37;100.00;98894.23;104902;1261;76068;-52
2023/04/25 06:40:31;;;;;;;0.70;0.60;;;;;;;15.46;100.00;98892.80;108514;1257;67541;-52
2023/04/25 06:42:58;;;;;;;2.20;0.70;;;;;;;15.54;100.00;98893.26;106652;1258;71607;-51
2023/04/25 06:45:36;;;;;;;2.30;0.60;;;;;;;15.62;100.00;98892.05;104723;1256;62620;-52
2023/04/25 06:48:03;;;;;;;1.30;0.60;;;;;;;15.70;100.00;98890.70;104742;1265;61783;-51
2023/04/25 06:50:30;;;;;;;3.80;0.70;;;;;;;15.78;100.00;98890.92;106919;1261;74417;-52
2023/04/25 06:52:57;;;;;;;0.80;0.60;;;;;;;15.86;100.00;98886.98;104697;1261;69883;-52
2023/04/25 06:55:24;;;;;;;1.70;0.80;;;;;;;15.94;100.00;98880.20;104819;1258;72440;-52
2023/04/25 06:58:10;;;;;;;1.50;0.60;;;;;;;16.03;100.00;98881.96;105500;1263;60364;-54
2023/04/25 07:00:49;;;;;;;1.70;0.50;;;;;;;16.09;100.00;98880.53;104843;1258;61453;-51
2023/04/25 07:03:18;;;;;;;2.20;0.50;;;;;;;16.15;100.00;98876.20;105737;1261;73730;-52
2023/04/25 07:05:46;;;;;;;2.00;0.50;;;;;;;16.20;100.00;98874.80;105994;1262;71001;-53
2023/04/25 07:11:01;;;;;;;2.10;0.50;;;;;;;16.39;100.00;98874.52;102274;1297;600574;-51
2023/04/25 07:13:28;;;;;;;1.00;0.60;;;;;;;16.43;100.00;98868.14;104469;1269;59412;-52
2023/04/25 07:15:56;;;;;;;1.90;0.80;;;;;;;16.49;100.00;98869.42;108584;1255;62060;-54
2023/04/25 07:18:23;;;;;;;2.50;0.50;;;;;;;16.57;100.00;98866.05;107454;1261;73007;-52
2023/04/25 07:20:51;;;;;;;6.30;0.50;;;;;;;16.65;100.00;98870.82;104988;1256;69262;-54
2023/04/25 07:23:18;;;;;;;0.50;0.40;;;;;;;16.73;100.00;98869.40;105148;1257;75067;-53
2023/04/25 07:25:46;;;;;;;1.00;0.50;;;;;;;16.80;100.00;98870.91;105264;1253;166473;-56
2023/04/25 07:28:15;;;;;;;3.70;0.60;;;;;;;16.87;100.00;98865.59;105888;1259;61941;-52
2023/04/25 07:30:46;;;;;;;1.60;0.70;;;;;;;16.95;100.00;98862.55;105395;1259;72771;-51
2023/04/25 07:33:13;;;;;;;4.20;0.50;;;;;;;17.03;100.00;98864.50;105503;1259;68000;-52
2023/04/25 07:35:40;;;;;;;6.10;0.50;;;;;;;17.10;100.00;98862.50;106390;1253;74927;-49
2023/04/25 07:38:07;;;;;;;0.60;0.60;;;;;;;17.17;100.00;98858.77;104990;1253;63428;-52
2023/04/25 07:40:35;;;;;;;1.60;0.70;;;;;;;17.25;100.00;98857.88;104999;1254;60492;-52
2023/04/25 07:43:05;;;;;;;2.90;0.50;;;;;;;17.31;100.00;98856.06;106529;1254;75648;-52
2023/04/25 07:45:37;;;;;;;0.90;0.60;;;;;;;17.36;100.00;98854.33;105400;1253;65807;-53
2023/04/25 07:48:04;;;;;;;2.60;0.50;;;;;;;17.37;100.00;98853.81;105568;1253;74387;-51
2023/04/25 07:50:32;;;;;;;2.30;0.60;;;;;;;17.41;100.00;98853.48;105214;1259;59796;-51
2023/04/25 07:52:59;;;;;;;1.30;0.50;;;;;;;17.46;100.00;98850.91;105403;1253;62911;-52
2023/04/25 07:55:30;;;;;;;2.60;0.50;;;;;;;17.50;100.00;98849.63;105536;1260;73828;-53
2023/04/25 07:58:08;;;;;;;3.30;0.50;;;;;;;17.54;100.00;98844.69;105692;1253;67378;-52
2023/04/25 08:00:36;;;;;;;6.30;0.70;;;;;;;17.57;100.00;98844.45;105748;1253;73483;-53
2023/04/25 08:03:38;;;;;;;0.70;0.50;;;;;;;17.66;100.00;98847.20;104688;1263;63097;-53
2023/04/25 08:06:10;;;;;;;1.20;0.60;;;;;;;17.76;100.00;98844.48;105861;1253;61800;-52
2023/04/25 08:08:45;;;;;;;2.10;0.60;;;;;;;17.84;100.00;98843.36;105417;1253;75487;-52
2023/04/25 08:11:13;;;;;;;0.80;0.50;;;;;;;17.91;100.00;98841.61;104876;1259;67376;-53
2023/04/25 08:13:40;;;;;;;3.00;0.40;;;;;;;17.99;100.00;98837.64;104679;1255;75474;-52
2023/04/25 08:16:06;;;;;;;5.50;0.60;;;;;;;18.08;100.00;98836.80;105169;1253;61465;-54
2023/04/25 08:18:34;;;;;;;2.30;0.50;;;;;;;18.11;100.00;98841.16;105164;1253;60654;-52
2023/04/25 08:21:01;;;;;;;2.10;0.60;;;;;;;18.11;100.00;98841.54;105254;1256;74032;-50
2023/04/25 08:23:27;;;;;;;0.60;0.40;;;;;;;18.08;100.00;98837.55;105198;1260;69730;-53
2023/04/25 08:26:04;;;;;;;0.60;0.40;;;;;;;18.07;100.00;98840.67;105459;1258;74558;-50
2023/04/25 08:28:32;;;;;;;4.80;0.60;;;;;;;18.10;100.00;98839.09;104968;1256;61009;-53
2023/04/25 08:31:00;;;;;;;0.50;0.40;;;;;;;18.18;100.00;98837.52;104822;1261;60439;-53
2023/04/25 08:33:32;;;;;;;0.60;0.50;;;;;;;18.20;100.00;98834.84;105682;1253;73823;-54
2023/04/25 08:36:19;;;;;;;6.50;0.50;;;;;;;18.18;100.00;98825.69;105699;1253;66430;-54
2023/04/25 08:39:03;;;;;;;4.40;0.80;;;;;;;18.21;100.00;98827.39;105283;1260;72663;-51
2023/04/25 08:41:30;;;;;;;1.90;0.50;;;;;;;18.22;100.00;98828.25;105241;1259;62072;-53
2023/04/25 08:43:59;;;;;;;0.50;0.50;;;;;;;18.20;100.00;98819.90;105276;1259;60526;-52
2023/04/25 08:46:26;;;;;;;2.90;0.70;;;;;;;18.22;100.00;98821.71;105513;1253;73229;-53
2023/04/25 08:49:09;;;;;;;2.80;0.50;;;;;;;18.25;100.00;98825.62;105159;1253;68556;-48
2023/04/25 08:51:50;;;;;;;1.80;0.40;;;;;;;18.28;100.00;98824.05;104879;1254;70953;-54
2023/04/25 08:54:20;;;;;;;1.00;0.50;;;;;;;18.32;100.00;98820.73;105135;1256;60250;-51
2023/04/25 08:57:02;;;;;;;1.20;0.50;;;;;;;18.38;100.00;98817.80;105614;1261;61495;-53
2023/04/25 08:59:29;;;;;;;2.20;0.50;;;;;;;18.41;100.00;98819.89;105397;1254;73443;-53
2023/04/25 09:01:56;;;;;;;0.50;0.40;;;;;;;18.38;100.00;98816.30;108730;1253;70723;-53
2023/04/25 09:04:23;;;;;;;0.60;0.40;;;;;;;18.33;100.00;98817.15;108800;1253;73370;-53
2023/04/25 09:06:50;;;;;;;0.50;0.50;;;;;;;18.28;100.00;98814.98;108856;1254;60310;-54
2023/04/25 09:09:17;;;;;;;2.70;0.50;;;;;;;18.27;100.00;98818.17;108979;1254;61242;-54
2023/04/25 09:11:44;;;;;;;2.80;0.50;;;;;;;18.33;100.00;98810.84;108890;1254;75069;-53
2023/04/25 09:14:17;;;;;;;1.00;0.60;;;;;;;18.39;100.00;98814.58;108947;1256;67643;-53
2023/04/25 09:17:00;;;;;;;1.20;0.40;;;;;;;18.43;100.00;98813.30;108743;1254;73728;-54
2023/04/25 09:19:39;;;;;;;2.70;0.40;;;;;;;18.45;100.00;98810.43;108792;1254;59308;-53
2023/04/25 09:22:15;;;;;;;0.90;0.40;;;;;;;18.47;100.00;98807.26;108788;1256;62268;-53
2023/04/25 09:24:44;;;;;;;0.90;0.30;;;;;;;18.53;100.00;98810.15;108847;1254;74175;-53
2023/04/25 09:27:12;;;;;;;0.90;0.40;;;;;;;18.64;100.00;98810.56;108745;1256;66997;-53
2023/04/25 09:29:40;;;;;;;1.30;0.40;;;;;;;18.72;100.00;98806.86;108783;1260;72615;-54
2023/04/25 09:32:18;;;;;;;2.00;0.40;;;;;;;18.75;100.00;98805.85;108756;1255;60577;-54
2023/04/25 09:34:50;;;;;;;1.00;0.50;;;;;;;18.77;100.00;98802.75;108848;1254;59934;-54
2023/04/25 09:37:23;;;;;;;1.10;0.40;;;;;;;18.75;100.00;98807.85;108921;1256;71842;-54
2023/04/25 09:40:06;;;;;;;0.50;0.40;;;;;;;18.77;100.00;98803.84;108842;1256;69481;-53
2023/04/25 09:42:44;;;;;;;0.90;0.40;;;;;;;18.84;100.00;98802.05;108592;1256;74941;-54
2023/04/25 09:45:12;;;;;;;0.70;0.40;;;;;;;18.92;100.00;98787.33;108850;1254;59763;-54
2023/04/25 09:47:39;;;;;;;2.80;0.50;;;;;;;18.97;100.00;98792.98;108906;1254;59972;-54
2023/04/25 09:50:15;;;;;;;2.00;0.40;;;;;;;19.00;100.00;98786.52;108756;1254;73239;-54
2023/04/25 09:52:43;;;;;;;0.70;0.40;;;;;;;19.05;100.00;98782.95;108199;1260;68609;-51
2023/04/25 09:55:17;;;;;;;;;;;;;;;19.11;100.00;98780.88;105309;1256;74089;-52
2023/04/25 09:57:44;;;;;;;4.90;0.50;;;;;;;19.18;100.00;98781.67;105147;1256;61892;-54
2023/04/25 10:00:12;;;;;;;1.60;0.40;;;;;;;19.23;100.00;98783.73;105237;1254;60561;-51
2023/04/25 10:02:42;;;;;;;1.10;0.40;;;;;;;19.28;100.00;98780.67;105825;1258;72086;-53
2023/04/25 10:05:11;;;;;;;0.90;0.50;;;;;;;19.31;100.00;98779.41;104846;1255;66407;-54
2023/04/25 10:07:39;;;;;;;4.00;0.40;;;;;;;19.33;100.00;98776.00;105315;1256;74800;-53
2023/04/25 10:10:15;;;;;;;1.00;0.40;;;;;;;19.30;100.00;98776.47;105262;1260;61370;-53
2023/04/25 10:12:43;;;;;;;0.40;0.40;;;;;;;19.23;100.00;98772.73;105157;1256;61011;-52
2023/04/25 10:15:10;;;;;;;2.30;0.40;;;;;;;19.16;100.00;98766.71;106536;1254;73051;-53
2023/04/25 10:17:37;;;;;;;2.00;0.40;;;;;;;19.13;100.00;98765.45;105284;1260;66366;-51
2023/04/25 10:20:08;;;;;;;0.90;0.30;;;;;;;19.14;100.00;98764.75;105362;1256;73020;-49
2023/04/25 10:22:39;;;;;;;10.10;0.50;;;;;;;19.17;100.00;98770.41;105787;1262;59765;-49
2023/04/25 10:25:06;;;;;;;2.30;0.40;;;;;;;19.21;100.00;98766.62;105216;1262;61916;-49
2023/04/25 10:27:33;;;;;;;1.40;0.60;;;;;;;19.20;100.00;98769.26;105572;1256;71851;-52
2023/04/25 10:30:14;;;;;;;0.50;0.40;;;;;;;19.13;100.00;98766.92;105110;1254;68407;-53
2023/04/25 10:32:42;;;;;;;4.20;0.50;;;;;;;19.02;100.00;98761.80;105308;1259;72095;-52
2023/04/25 10:35:23;;;;;;;0.40;0.40;;;;;;;18.98;100.00;98753.99;105068;1258;59884;-53
2023/04/25 10:37:57;;;;;;;2.40;0.50;;;;;;;18.98;100.00;98762.15;106492;1255;59845;-52
2023/04/25 10:40:23;;;;;;;3.70;0.40;;;;;;;19.05;100.00;98760.77;105223;1256;74112;-48
2023/04/25 10:42:54;;;;;;;1.50;0.40;;;;;;;19.12;100.00;98762.48;105265;1256;67801;-53
2023/04/25 10:45:21;;;;;;;0.90;0.60;;;;;;;19.19;100.00;98763.38;105236;1254;74607;-48
2023/04/25 10:47:48;;;;;;;1.40;0.60;;;;;;;19.28;100.00;98757.52;105226;1253;61492;-52
2023/04/25 10:50:18;;;;;;;1.20;0.40;;;;;;;19.36;100.00;98754.05;104933;1255;62113;-49
2023/04/25 10:52:45;;;;;;;0.60;0.40;;;;;;;19.37;100.00;98753.42;104801;1260;74288;-48
2023/04/25 10:55:12;;;;;;;3.30;0.50;;;;;;;19.33;100.00;98754.30;105087;1254;67395;-48
2023/04/25 10:57:40;;;;;;;0.40;0.40;;;;;;;19.29;100.00;98749.86;105368;1258;72659;-53
2023/04/25 11:00:13;;;;;;;4.40;0.50;;;;;;;19.28;100.00;98745.89;105320;1258;61554;-53
2023/04/25 11:02:47;;;;;;;1.30;0.50;;;;;;;19.31;100.00;98743.97;105591;1256;60430;-51
2023/04/25 11:05:36;;;;;;;0.40;0.30;;;;;;;19.35;100.00;98741.39;106328;1255;74886;-49
2023/04/25 11:08:33;;;;;;;1.00;0.40;;;;;;;19.39;100.00;98738.40;104709;1256;68377;-50
2023/04/25 11:11:00;;;;;;;0.50;0.30;;;;;;;19.45;100.00;98737.14;104969;1256;74186;-49
2023/04/25 11:13:30;;;;;;;1.10;0.50;;;;;;;19.53;100.00;98739.54;104820;1257;59733;-48
2023/04/25 11:15:56;;;;;;;0.90;0.40;;;;;;;19.61;100.00;98734.71;105078;1255;60661;-49
2023/04/25 11:18:41;;;;;;;0.50;0.30;;;;;;;19.63;100.00;98733.79;104982;1256;73104;-47
2023/04/25 11:21:07;;;;;;;1.10;0.50;;;;;;;19.60;100.00;98732.69;107429;1256;67140;-47
2023/04/25 11:23:34;;;;;;;2.90;0.40;;;;;;;19.59;100.00;98727.86;105275;1256;71770;-53
2023/04/25 11:26:01;;;;;;;3.30;0.40;;;;;;;19.60;100.00;98722.13;105304;1256;60487;-51
2023/04/25 11:28:28;;;;;;;1.90;0.40;;;;;;;19.63;100.00;98724.91;105211;1260;60429;-50
2023/04/25 11:30:55;;;;;;;0.50;0.50;;;;;;;19.63;100.00;98720.74;105103;1262;74278;-51
2023/04/25 11:33:25;;;;;;;1.80;0.40;;;;;;;19.62;100.00;98718.96;105214;1259;66452;-54
2023/04/25 11:35:56;;;;;;;0.50;0.30;;;;;;;19.63;100.00;98714.52;105112;1259;72537;-54
2023/04/25 11:38:24;;;;;;;0.60;0.40;;;;;;;19.62;100.00;98714.25;106366;1256;61690;-47